Terminal Aerodrome Forecast
Issued by NWS Jacksonville, FL

Home | Current Version | Previous Version | Text Only | Print | Product List | Glossary On
Versions: 1 2 3 4 5 6 7 8 9 10 11 12 13 14 15 16 17 18 19 20 21 22 23 24 25 26 27 28 29 30
000
FTUS42 KJAX 270707 AAA
TAFJAX
TAF AMD
KJAX 270707Z 2707/2806 36004KT P6SM SCT030 OVC150
     FM271400 02008KT P6SM FEW035 BKN200
     FM271700 03011G16KT P6SM BKN250
     FM280000 02008KT P6SM SCT035 BKN250=

USA.gov is the U.S. government's official web portal to all federal, state and local government web resources and services.